Time;durP1;ratioP1;P1;durP2;ratioP2;P2;SDS_P1;SDS_P2;PMS_P1;PMS_P2;Temp;Humidity;BMP_temperature;BMP_pressure;BME280_temperature;BME280_humidity;BME280_pressure;Samples;Min_cycle;Max_cycle;Signal;HPM_P1;HPM_P2
2022/02/25 00:01:51;;;;;;;3.85;0.98;;;;;;;;;;5074782;28;20446;-63
2022/02/25 00:04:36;;;;;;;5.80;1.15;;;;;;;;;;5065409;28;20154;-61
2022/02/25 00:07:21;;;;;;;3.10;1.10;;;;;;;;;;5085658;28;20072;-61
2022/02/25 00:10:07;;;;;;;1.38;0.70;;;;;;;;;;5084124;28;20460;-60
2022/02/25 00:12:52;;;;;;;1.80;1.13;;;;;;;;;;5086950;28;20034;-61
2022/02/25 00:15:37;;;;;;;3.20;0.90;;;;;;;;;;5073779;28;20032;-60
2022/02/25 00:21:45;;;;;;;4.75;1.30;;;;;;;;;;5061759;28;20023;-64
2022/02/25 00:24:31;;;;;;;3.13;1.60;;;;;;;;;;5074415;28;20467;-59
2022/02/25 00:27:16;;;;;;;4.38;0.80;;;;;;;;;;5079174;28;20093;-60
2022/02/25 00:30:02;;;;;;;3.20;1.10;;;;;;;;;;5066057;28;20695;-60
2022/02/25 00:32:48;;;;;;;4.35;1.08;;;;;;;;;;5073873;28;20040;-71
2022/02/25 00:35:33;;;;;;;4.00;1.17;;;;;;;;;;5086969;28;20397;-62
2022/02/25 00:38:19;;;;;;;7.93;1.30;;;;;;;;;;5088613;28;20017;-61
2022/02/25 00:41:04;;;;;;;3.72;1.10;;;;;;;;;;5101842;28;20031;-66
2022/02/25 00:43:49;;;;;;;5.82;1.10;;;;;;;;;;5088236;28;20027;-63
2022/02/25 00:46:34;;;;;;;5.30;1.00;;;;;;;;;;5086238;28;20027;-64
2022/02/25 00:49:20;;;;;;;3.88;1.25;;;;;;;;;;5088510;28;20028;-63
2022/02/25 00:52:05;;;;;;;2.15;0.93;;;;;;;;;;5087413;28;20089;-62
2022/02/25 00:54:51;;;;;;;3.17;1.48;;;;;;;;;;5087233;28;20042;-64
2022/02/25 00:57:42;;;;;;;4.35;1.02;;;;;;;;;;5100179;28;20020;-64
2022/02/25 01:00:27;;;;;;;5.95;1.65;;;;;;;;;;5086489;28;20024;-63
2022/02/25 01:03:13;;;;;;;2.78;1.13;;;;;;;;;;5085895;28;20379;-64
2022/02/25 01:05:58;;;;;;;3.40;1.10;;;;;;;;;;5086152;28;20040;-65
2022/02/25 01:08:43;;;;;;;4.43;1.17;;;;;;;;;;5102820;28;20035;-64
2022/02/25 01:11:28;;;;;;;1.77;0.93;;;;;;;;;;5095598;28;20032;-66
2022/02/25 01:14:14;;;;;;;4.30;1.10;;;;;;;;;;5073117;28;20429;-62
2022/02/25 01:16:59;;;;;;;4.78;1.38;;;;;;;;;;5073440;28;20028;-62
2022/02/25 01:19:44;;;;;;;2.88;1.00;;;;;;;;;;5086859;28;20064;-62
2022/02/25 01:22:29;;;;;;;3.97;1.30;;;;;;;;;;5085057;28;20055;-61
2022/02/25 01:25:15;;;;;;;3.55;1.45;;;;;;;;;;5106423;28;20047;-62
2022/02/25 01:28:00;;;;;;;5.82;1.08;;;;;;;;;;5079371;28;20040;-59
2022/02/25 01:30:45;;;;;;;4.35;1.48;;;;;;;;;;5090820;28;20031;-70
2022/02/25 01:33:31;;;;;;;5.07;1.45;;;;;;;;;;5090730;28;20107;-71
2022/02/25 01:36:16;;;;;;;5.18;1.30;;;;;;;;;;5099306;28;20028;-72
2022/02/25 01:39:02;;;;;;;2.80;1.23;;;;;;;;;;5088939;28;20424;-72
2022/02/25 01:41:47;;;;;;;2.50;0.98;;;;;;;;;;5092094;28;20043;-72
2022/02/25 01:44:37;;;;;;;3.05;1.38;;;;;;;;;;5104081;28;20035;-72
2022/02/25 01:47:22;;;;;;;4.40;1.30;;;;;;;;;;5088913;28;20032;-61
2022/02/25 01:50:08;;;;;;;4.00;1.23;;;;;;;;;;5063922;28;20062;-69
2022/02/25 01:53:01;;;;;;;9.00;1.25;;;;;;;;;;5088128;28;20380;-71
2022/02/25 01:55:47;;;;;;;4.35;1.20;;;;;;;;;;5103802;28;20024;-69
2022/02/25 01:58:32;;;;;;;4.32;1.42;;;;;;;;;;5085563;28;20593;-69
2022/02/25 02:01:18;;;;;;;3.60;1.27;;;;;;;;;;5090576;28;20040;-68
2022/02/25 02:04:03;;;;;;;6.28;1.75;;;;;;;;;;5085482;28;20445;-61
2022/02/25 02:06:49;;;;;;;3.13;1.40;;;;;;;;;;5082551;28;20046;-64
2022/02/25 02:09:34;;;;;;;5.30;1.45;;;;;;;;;;5100753;28;20115;-62
2022/02/25 02:12:20;;;;;;;6.80;1.25;;;;;;;;;;5104250;27;20036;-62
2022/02/25 02:15:06;;;;;;;2.70;1.08;;;;;;;;;;5074522;28;20612;-62
2022/02/25 02:17:53;;;;;;;5.70;1.65;;;;;;;;;;5098800;28;20390;-64
2022/02/25 02:20:38;;;;;;;3.67;1.23;;;;;;;;;;5088364;28;20012;-60
2022/02/25 02:23:23;;;;;;;2.75;1.27;;;;;;;;;;5089640;28;20134;-62
2022/02/25 02:26:08;;;;;;;5.95;1.30;;;;;;;;;;5091297;28;20043;-70
2022/02/25 02:28:54;;;;;;;5.60;1.63;;;;;;;;;;5104221;28;20027;-69
2022/02/25 02:31:39;;;;;;;3.38;1.55;;;;;;;;;;5064026;28;20077;-68
2022/02/25 02:34:24;;;;;;;5.28;1.38;;;;;;;;;;5086383;28;20085;-68
2022/02/25 02:37:13;;;;;;;5.28;1.67;;;;;;;;;;5093014;28;20110;-68
2022/02/25 02:39:58;;;;;;;4.60;1.30;;;;;;;;;;5083541;28;20039;-70
2022/02/25 02:42:43;;;;;;;8.55;1.63;;;;;;;;;;5077007;28;20106;-62
2022/02/25 02:45:29;;;;;;;4.57;1.50;;;;;;;;;;5088288;28;20103;-62
2022/02/25 02:48:14;;;;;;;1.92;0.98;;;;;;;;;;5065337;28;20032;-61
2022/02/25 02:51:00;;;;;;;4.15;2.10;;;;;;;;;;5075871;28;20027;-61
2022/02/25 02:53:45;;;;;;;6.07;1.50;;;;;;;;;;5076676;28;20035;-61
2022/02/25 02:56:30;;;;;;;3.17;1.30;;;;;;;;;;5067166;28;20050;-60
2022/02/25 02:59:16;;;;;;;3.15;1.15;;;;;;;;;;5076406;28;20053;-64
2022/02/25 03:02:01;;;;;;;4.10;1.20;;;;;;;;;;5091767;28;20047;-61
2022/02/25 03:04:46;;;;;;;5.35;1.30;;;;;;;;;;5071307;28;20026;-64
2022/02/25 03:07:32;;;;;;;4.28;1.80;;;;;;;;;;5077047;28;20051;-64
2022/02/25 03:10:17;;;;;;;4.40;1.48;;;;;;;;;;5082468;28;20031;-67
2022/02/25 03:13:03;;;;;;;2.83;1.30;;;;;;;;;;5079671;28;20039;-64
2022/02/25 03:15:48;;;;;;;5.43;1.80;;;;;;;;;;5069816;28;20705;-66
2022/02/25 03:18:34;;;;;;;3.88;1.25;;;;;;;;;;5072663;28;20024;-72
2022/02/25 03:21:19;;;;;;;5.93;1.45;;;;;;;;;;5068450;28;20414;-63
2022/02/25 03:24:04;;;;;;;5.28;1.33;;;;;;;;;;5072991;28;20474;-62
2022/02/25 03:26:50;;;;;;;3.95;1.20;;;;;;;;;;5073998;28;20498;-62
2022/02/25 03:29:35;;;;;;;3.42;1.10;;;;;;;;;;5105189;28;20024;-62
2022/02/25 03:32:21;;;;;;;2.83;1.10;;;;;;;;;;5090585;28;20124;-64
2022/02/25 03:35:06;;;;;;;6.65;1.67;;;;;;;;;;5089388;28;20105;-61
2022/02/25 03:37:51;;;;;;;6.78;1.52;;;;;;;;;;5092308;28;20051;-61
2022/02/25 03:40:37;;;;;;;3.60;1.23;;;;;;;;;;5090616;28;20020;-73
2022/02/25 03:43:22;;;;;;;5.07;1.55;;;;;;;;;;5088166;28;20429;-75
2022/02/25 03:46:07;;;;;;;5.53;2.45;;;;;;;;;;5102107;27;20032;-71
2022/02/25 03:48:53;;;;;;;7.30;1.70;;;;;;;;;;5088856;28;20406;-72
2022/02/25 03:51:38;;;;;;;5.32;1.40;;;;;;;;;;5102197;28;20114;-72
2022/02/25 03:54:23;;;;;;;17.40;1.98;;;;;;;;;;5084389;28;20028;-60
2022/02/25 03:57:08;;;;;;;4.90;1.30;;;;;;;;;;5100045;28;20187;-68
2022/02/25 03:59:53;;;;;;;8.45;1.63;;;;;;;;;;5077872;28;20016;-72
2022/02/25 04:02:39;;;;;;;5.80;1.90;;;;;;;;;;5088889;28;20051;-70
2022/02/25 04:05:24;;;;;;;7.50;1.15;;;;;;;;;;5078736;28;20032;-73
2022/02/25 04:08:10;;;;;;;6.13;1.27;;;;;;;;;;5101967;28;20035;-73
2022/02/25 04:10:55;;;;;;;4.93;1.40;;;;;;;;;;5103695;28;20042;-72
2022/02/25 04:13:40;;;;;;;4.35;1.30;;;;;;;;;;5100757;28;20502;-65
2022/02/25 04:16:26;;;;;;;5.55;1.33;;;;;;;;;;5102217;28;20046;-61
2022/02/25 04:19:11;;;;;;;5.38;1.17;;;;;;;;;;5078081;28;20034;-61
2022/02/25 04:21:57;;;;;;;5.53;1.42;;;;;;;;;;5081601;28;20030;-59
2022/02/25 04:24:42;;;;;;;5.15;1.30;;;;;;;;;;5091651;28;20510;-59
2022/02/25 04:27:27;;;;;;;5.18;1.42;;;;;;;;;;5095768;28;20032;-60
2022/02/25 04:30:13;;;;;;;3.53;1.60;;;;;;;;;;5076686;28;20067;-59
2022/02/25 04:32:58;;;;;;;5.05;1.17;;;;;;;;;;5059870;28;20133;-64
2022/02/25 04:35:43;;;;;;;6.00;1.33;;;;;;;;;;5087354;28;20363;-61
2022/02/25 04:38:29;;;;;;;7.05;1.80;;;;;;;;;;5084081;28;20048;-65
2022/02/25 04:41:15;;;;;;;9.60;1.75;;;;;;;;;;5088728;28;20032;-61
2022/02/25 04:44:00;;;;;;;6.13;1.73;;;;;;;;;;5101860;28;20024;-61
2022/02/25 04:46:45;;;;;;;7.28;1.65;;;;;;;;;;5084822;28;20540;-62
2022/02/25 04:49:31;;;;;;;6.38;1.48;;;;;;;;;;5067680;28;20035;-63
2022/02/25 04:52:17;;;;;;;4.38;1.77;;;;;;;;;;5101697;28;20089;-72
2022/02/25 04:55:03;;;;;;;5.35;1.48;;;;;;;;;;5086934;28;20045;-60
2022/02/25 04:57:48;;;;;;;7.30;1.98;;;;;;;;;;5096664;28;20875;-64
2022/02/25 05:00:34;;;;;;;5.88;1.60;;;;;;;;;;5087495;28;20036;-61
2022/02/25 05:03:20;;;;;;;4.47;1.20;;;;;;;;;;5105507;28;20115;-60
2022/02/25 05:06:06;;;;;;;5.43;1.95;;;;;;;;;;5106125;27;20086;-62
2022/02/25 05:08:54;;;;;;;4.53;1.77;;;;;;;;;;5093407;28;20378;-72
2022/02/25 05:11:39;;;;;;;8.60;1.65;;;;;;;;;;5087967;28;20115;-72
2022/02/25 05:20:32;;;;;;;5.20;2.17;;;;;;;;;;5089509;28;20403;-74
2022/02/25 05:23:17;;;;;;;7.10;1.73;;;;;;;;;;5080653;28;20123;-74
2022/02/25 05:26:02;;;;;;;5.50;1.90;;;;;;;;;;5090313;28;20047;-72
2022/02/25 05:28:48;;;;;;;5.85;1.48;;;;;;;;;;5106350;28;20016;-61
2022/02/25 05:31:33;;;;;;;4.18;1.55;;;;;;;;;;5096384;28;20024;-69
2022/02/25 05:34:19;;;;;;;6.38;1.45;;;;;;;;;;5103722;28;20161;-68
2022/02/25 05:37:07;;;;;;;6.13;1.55;;;;;;;;;;5090526;28;20074;-67
2022/02/25 05:39:52;;;;;;;5.85;1.85;;;;;;;;;;5093956;28;20024;-68
2022/02/25 05:42:38;;;;;;;5.18;1.73;;;;;;;;;;5110248;28;20115;-69
2022/02/25 05:45:23;;;;;;;7.20;1.58;;;;;;;;;;5091614;28;20121;-60
2022/02/25 05:48:08;;;;;;;8.35;1.55;;;;;;;;;;5082570;28;20043;-63
2022/02/25 05:50:54;;;;;;;11.55;2.15;;;;;;;;;;5105458;28;20523;-63
2022/02/25 05:53:39;;;;;;;8.77;1.38;;;;;;;;;;5093185;28;20035;-63
2022/02/25 05:56:26;;;;;;;3.45;1.40;;;;;;;;;;5090045;28;20028;-61
2022/02/25 05:59:11;;;;;;;6.97;1.73;;;;;;;;;;5102003;28;20062;-59
2022/02/25 06:01:56;;;;;;;7.90;2.00;;;;;;;;;;5103422;28;20036;-63
2022/02/25 06:04:42;;;;;;;6.78;1.48;;;;;;;;;;5083250;28;20035;-71
2022/02/25 06:07:27;;;;;;;8.85;1.60;;;;;;;;;;5090717;28;20672;-63
2022/02/25 06:10:13;;;;;;;7.50;1.70;;;;;;;;;;5093160;28;20128;-65
2022/02/25 06:13:00;;;;;;;8.80;1.67;;;;;;;;;;5097658;28;20039;-61
2022/02/25 06:15:46;;;;;;;6.63;2.45;;;;;;;;;;5108739;27;20024;-63
2022/02/25 06:18:31;;;;;;;13.95;1.73;;;;;;;;;;5090030;28;20020;-63
2022/02/25 06:21:18;;;;;;;8.32;1.75;;;;;;;;;;5096213;28;20020;-64
2022/02/25 06:24:03;;;;;;;8.07;1.80;;;;;;;;;;5089070;28;20040;-59
2022/02/25 06:26:49;;;;;;;4.75;1.67;;;;;;;;;;5093770;28;20418;-64
2022/02/25 06:29:34;;;;;;;8.57;2.33;;;;;;;;;;5073099;28;20508;-65
2022/02/25 06:32:19;;;;;;;8.30;2.30;;;;;;;;;;5103380;27;20028;-62
2022/02/25 06:35:05;;;;;;;7.88;1.92;;;;;;;;;;5083061;28;20398;-62
2022/02/25 06:37:50;;;;;;;5.22;1.48;;;;;;;;;;5092130;28;20024;-62
2022/02/25 06:40:35;;;;;;;8.23;1.80;;;;;;;;;;5092206;28;20027;-62
2022/02/25 06:43:21;;;;;;;11.20;2.55;;;;;;;;;;5084930;28;20086;-68
2022/02/25 06:46:08;;;;;;;7.90;2.50;;;;;;;;;;5104973;27;20494;-68
2022/02/25 06:48:54;;;;;;;6.43;1.98;;;;;;;;;;5083052;28;20021;-69
2022/02/25 06:51:39;;;;;;;5.00;1.95;;;;;;;;;;5087263;28;20035;-68
2022/02/25 06:54:24;;;;;;;5.20;1.83;;;;;;;;;;5103774;28;20039;-67
2022/02/25 06:57:09;;;;;;;9.60;2.13;;;;;;;;;;5103236;27;20117;-68
2022/02/25 06:59:55;;;;;;;10.27;2.58;;;;;;;;;;5098433;28;20747;-63
2022/02/25 07:02:40;;;;;;;8.10;2.90;;;;;;;;;;5089778;28;20119;-61
2022/02/25 07:05:26;;;;;;;12.02;2.22;;;;;;;;;;5071677;28;20026;-62
2022/02/25 07:08:11;;;;;;;6.82;1.60;;;;;;;;;;5081450;28;20043;-62
2022/02/25 07:10:57;;;;;;;16.17;2.75;;;;;;;;;;5085214;28;20070;-65
2022/02/25 07:13:42;;;;;;;9.30;2.25;;;;;;;;;;5100049;28;20031;-63
2022/02/25 07:16:27;;;;;;;21.15;2.53;;;;;;;;;;5094438;28;20597;-65
2022/02/25 07:19:12;;;;;;;8.85;2.75;;;;;;;;;;5094868;28;20028;-62
2022/02/25 07:21:58;;;;;;;11.52;2.33;;;;;;;;;;5089006;28;20039;-62
2022/02/25 07:24:43;;;;;;;9.70;2.47;;;;;;;;;;5087239;28;20239;-64
2022/02/25 07:27:28;;;;;;;10.75;2.83;;;;;;;;;;5093793;28;20027;-65
2022/02/25 07:30:14;;;;;;;12.38;4.40;;;;;;;;;;5085530;28;20065;-61
2022/02/25 07:32:59;;;;;;;8.25;2.03;;;;;;;;;;5086877;28;20031;-62
2022/02/25 07:35:44;;;;;;;9.02;2.60;;;;;;;;;;5096672;27;20066;-62
2022/02/25 07:38:30;;;;;;;10.75;1.77;;;;;;;;;;5071032;28;20077;-72
2022/02/25 07:41:15;;;;;;;7.45;2.25;;;;;;;;;;5087156;28;20028;-70
2022/02/25 07:44:00;;;;;;;11.27;2.28;;;;;;;;;;5086777;28;20040;-68
2022/02/25 07:46:46;;;;;;;14.75;2.63;;;;;;;;;;5075839;28;20399;-67
2022/02/25 07:49:31;;;;;;;10.30;2.28;;;;;;;;;;5088758;28;20028;-74
2022/02/25 07:52:17;;;;;;;8.98;1.92;;;;;;;;;;5086849;28;20019;-72
2022/02/25 07:55:02;;;;;;;12.25;2.25;;;;;;;;;;5092569;28;20073;-70
2022/02/25 07:57:48;;;;;;;8.80;2.17;;;;;;;;;;5078547;28;20102;-68
2022/02/25 08:00:33;;;;;;;7.88;2.40;;;;;;;;;;5087508;28;20093;-69
2022/02/25 08:03:18;;;;;;;11.10;2.38;;;;;;;;;;5087372;28;20072;-71
2022/02/25 08:06:03;;;;;;;10.45;2.50;;;;;;;;;;5072592;28;20035;-72
2022/02/25 08:08:49;;;;;;;12.02;2.03;;;;;;;;;;5098558;28;20062;-71
2022/02/25 08:11:34;;;;;;;6.55;2.53;;;;;;;;;;5090298;28;20024;-71
2022/02/25 08:14:19;;;;;;;9.02;1.90;;;;;;;;;;5084436;28;20016;-64
2022/02/25 08:17:05;;;;;;;7.07;2.28;;;;;;;;;;5087346;28;20435;-69
2022/02/25 08:19:50;;;;;;;8.95;2.20;;;;;;;;;;5071683;28;20050;-69
2022/02/25 08:22:35;;;;;;;8.70;2.28;;;;;;;;;;5091929;28;20028;-72
2022/02/25 08:25:20;;;;;;;12.80;2.42;;;;;;;;;;5087218;28;20024;-68
2022/02/25 08:28:07;;;;;;;11.48;2.42;;;;;;;;;;5084358;28;20545;-70
2022/02/25 08:30:52;;;;;;;10.45;2.00;;;;;;;;;;5097094;28;20085;-61
2022/02/25 08:33:38;;;;;;;8.02;2.30;;;;;;;;;;5085739;28;20027;-70
2022/02/25 08:36:24;;;;;;;10.63;2.60;;;;;;;;;;5086531;28;20033;-69
2022/02/25 08:39:09;;;;;;;14.70;2.83;;;;;;;;;;5099776;28;20114;-71
2022/02/25 08:41:55;;;;;;;10.50;2.08;;;;;;;;;;5085297;28;20720;-72
2022/02/25 08:44:42;;;;;;;9.57;2.47;;;;;;;;;;5083294;28;20024;-68
2022/02/25 08:47:27;;;;;;;12.98;2.60;;;;;;;;;;5089528;28;20047;-70
2022/02/25 08:50:14;;;;;;;7.55;2.00;;;;;;;;;;5092180;28;20088;-60
2022/02/25 08:52:59;;;;;;;7.47;1.90;;;;;;;;;;5085694;28;20061;-63
2022/02/25 08:55:45;;;;;;;12.98;2.78;;;;;;;;;;5097813;28;20016;-62
2022/02/25 08:58:30;;;;;;;5.32;1.70;;;;;;;;;;5087705;28;20390;-62
2022/02/25 09:01:15;;;;;;;9.70;2.92;;;;;;;;;;5063717;28;20024;-63
2022/02/25 09:04:01;;;;;;;7.75;2.00;;;;;;;;;;5090551;28;20039;-62
2022/02/25 09:06:47;;;;;;;7.47;2.10;;;;;;;;;;5087588;28;20036;-60
2022/02/25 09:09:32;;;;;;;10.40;2.28;;;;;;;;;;5086033;28;20028;-66
2022/02/25 09:12:17;;;;;;;9.95;2.42;;;;;;;;;;5085331;28;20031;-67
2022/02/25 09:15:04;;;;;;;7.00;2.45;;;;;;;;;;5091614;28;20031;-68
2022/02/25 09:17:51;;;;;;;5.75;2.00;;;;;;;;;;5085435;28;20024;-69
2022/02/25 09:20:37;;;;;;;9.18;2.35;;;;;;;;;;5073423;28;20177;-69
2022/02/25 09:23:23;;;;;;;10.98;2.60;;;;;;;;;;5073046;28;20097;-68
2022/02/25 09:26:08;;;;;;;7.30;2.35;;;;;;;;;;5085743;28;20097;-66
2022/02/25 09:28:53;;;;;;;10.50;2.25;;;;;;;;;;5082862;28;20483;-62
2022/02/25 09:31:39;;;;;;;8.75;2.08;;;;;;;;;;5070334;28;20028;-75
2022/02/25 09:34:24;;;;;;;10.15;2.75;;;;;;;;;;5091779;28;20056;-73
2022/02/25 09:37:09;;;;;;;9.93;2.25;;;;;;;;;;5084922;28;20117;-73
2022/02/25 09:39:55;;;;;;;7.30;2.67;;;;;;;;;;5087160;28;20028;-72
2022/02/25 09:42:41;;;;;;;10.32;2.42;;;;;;;;;;5083304;28;20024;-72
2022/02/25 09:45:26;;;;;;;8.45;2.88;;;;;;;;;;5087032;28;20029;-64
2022/02/25 09:48:12;;;;;;;8.95;2.35;;;;;;;;;;5085679;28;20546;-62
2022/02/25 09:50:57;;;;;;;11.45;2.50;;;;;;;;;;5094087;28;20036;-63
2022/02/25 09:53:43;;;;;;;10.90;2.10;;;;;;;;;;5088891;28;20028;-64
2022/02/25 09:56:29;;;;;;;5.28;2.40;;;;;;;;;;5102750;28;20433;-66
2022/02/25 09:59:15;;;;;;;5.15;1.90;;;;;;;;;;5090516;28;20035;-60
2022/02/25 10:02:02;;;;;;;9.35;2.47;;;;;;;;;;5090936;28;20035;-64
2022/02/25 10:04:47;;;;;;;7.57;1.80;;;;;;;;;;5088878;28;20028;-70
2022/02/25 10:07:33;;;;;;;9.07;1.80;;;;;;;;;;5096352;28;20111;-66
2022/02/25 10:10:19;;;;;;;9.90;2.13;;;;;;;;;;5091573;28;20035;-66
2022/02/25 10:13:05;;;;;;;8.50;1.92;;;;;;;;;;5091659;28;20038;-67
2022/02/25 10:15:53;;;;;;;7.28;2.45;;;;;;;;;;5101683;28;20086;-67
2022/02/25 10:18:38;;;;;;;6.10;1.90;;;;;;;;;;5088064;28;20104;-66
2022/02/25 10:21:24;;;;;;;10.05;3.33;;;;;;;;;;5081595;28;20606;-71
2022/02/25 10:24:09;;;;;;;7.95;2.97;;;;;;;;;;5069563;28;20143;-62
2022/02/25 10:26:55;;;;;;;6.95;2.88;;;;;;;;;;5081787;28;20028;-63
2022/02/25 10:29:50;;;;;;;12.35;3.88;;;;;;;;;;5088872;28;20058;-67
2022/02/25 10:32:47;;;;;;;6.80;1.75;;;;;;;;;;5098451;28;20097;-68
2022/02/25 10:35:33;;;;;;;9.02;2.28;;;;;;;;;;5091190;28;20024;-67
2022/02/25 10:38:19;;;;;;;8.77;3.88;;;;;;;;;;5087134;28;20500;-66
2022/02/25 10:41:05;;;;;;;8.80;4.45;;;;;;;;;;5088205;28;20070;-77
2022/02/25 10:43:50;;;;;;;7.53;3.88;;;;;;;;;;5086455;28;20587;-70
2022/02/25 10:46:36;;;;;;;10.40;5.45;;;;;;;;;;5100281;28;20036;-71
2022/02/25 10:49:26;;;;;;;5.57;4.88;;;;;;;;;;5085584;28;20033;-71
2022/02/25 10:52:21;;;;;;;7.18;4.93;;;;;;;;;;5086730;28;20035;-71
2022/02/25 10:55:18;;;;;;;8.63;5.00;;;;;;;;;;5099333;28;20051;-70
2022/02/25 10:58:03;;;;;;;9.55;3.20;;;;;;;;;;5097375;28;20115;-71
2022/02/25 11:00:58;;;;;;;6.80;2.20;;;;;;;;;;5077242;28;20035;-70
2022/02/25 11:03:57;;;;;;;6.80;1.48;;;;;;;;;;5097230;28;20104;-64
2022/02/25 11:06:43;;;;;;;9.57;2.07;;;;;;;;;;5099585;28;20024;-61
2022/02/25 11:09:28;;;;;;;6.80;2.08;;;;;;;;;;5084577;28;20047;-59
2022/02/25 11:12:13;;;;;;;5.78;2.35;;;;;;;;;;5088557;28;20031;-59
2022/02/25 11:14:59;;;;;;;6.55;1.83;;;;;;;;;;5087444;28;20024;-63
2022/02/25 11:17:45;;;;;;;8.38;2.30;;;;;;;;;;5094337;28;20023;-69
2022/02/25 11:20:34;;;;;;;10.02;2.65;;;;;;;;;;5092216;27;20615;-63
2022/02/25 11:23:23;;;;;;;5.28;1.90;;;;;;;;;;5076354;28;20024;-62
2022/02/25 11:26:08;;;;;;;9.15;3.53;;;;;;;;;;5071956;28;20038;-60
2022/02/25 11:28:59;;;;;;;9.30;2.05;;;;;;;;;;5090671;28;20016;-59
2022/02/25 11:31:45;;;;;;;6.18;1.70;;;;;;;;;;5059985;28;20034;-63
2022/02/25 11:34:31;;;;;;;8.82;2.03;;;;;;;;;;5072813;28;20130;-62
2022/02/25 11:37:36;;;;;;;9.13;2.13;;;;;;;;;;5070734;28;20036;-62
2022/02/25 11:40:40;;;;;;;8.10;2.35;;;;;;;;;;5075430;28;20379;-67
2022/02/25 11:43:37;;;;;;;6.47;2.05;;;;;;;;;;5068091;28;20027;-62
2022/02/25 11:46:28;;;;;;;6.88;2.72;;;;;;;;;;5070839;28;20028;-61
2022/02/25 11:49:15;;;;;;;6.60;1.75;;;;;;;;;;5065434;28;20055;-60
2022/02/25 11:52:02;;;;;;;7.47;1.98;;;;;;;;;;5064165;28;20024;-63
2022/02/25 11:54:48;;;;;;;6.13;2.00;;;;;;;;;;5080005;28;20112;-72
2022/02/25 11:57:33;;;;;;;6.68;1.98;;;;;;;;;;5076058;28;20036;-68
2022/02/25 12:00:19;;;;;;;7.13;2.17;;;;;;;;;;5078670;28;20024;-69
2022/02/25 12:03:08;;;;;;;7.90;2.20;;;;;;;;;;5069942;28;20073;-69
2022/02/25 12:05:53;;;;;;;10.07;2.30;;;;;;;;;;5076481;28;20613;-67
2022/02/25 12:08:39;;;;;;;8.38;1.95;;;;;;;;;;5076623;28;20471;-67
2022/02/25 12:11:31;;;;;;;8.05;2.20;;;;;;;;;;5084954;28;20486;-64
2022/02/25 12:14:36;;;;;;;5.50;2.05;;;;;;;;;;5071608;28;20024;-65
2022/02/25 12:17:34;;;;;;;6.95;2.20;;;;;;;;;;5080350;28;20023;-64
2022/02/25 12:20:20;;;;;;;6.53;2.03;;;;;;;;;;5059693;28;20027;-64
2022/02/25 12:23:08;;;;;;;8.18;1.92;;;;;;;;;;5072237;28;20110;-61
2022/02/25 12:26:00;;;;;;;6.43;1.90;;;;;;;;;;5074847;28;20130;-62
2022/02/25 12:28:47;;;;;;;6.50;1.80;;;;;;;;;;5060185;28;20681;-65
2022/02/25 12:31:41;;;;;;;7.45;1.95;;;;;;;;;;5036586;28;20016;-72
2022/02/25 12:34:27;;;;;;;10.07;2.38;;;;;;;;;;5053142;28;20089;-61
2022/02/25 12:37:15;;;;;;;7.95;1.95;;;;;;;;;;5040151;28;20040;-61
2022/02/25 12:40:04;;;;;;;7.63;1.88;;;;;;;;;;5052365;28;20024;-61
2022/02/25 12:42:50;;;;;;;6.90;1.88;;;;;;;;;;5051056;28;20475;-64
2022/02/25 12:45:38;;;;;;;8.82;1.90;;;;;;;;;;5051947;28;20056;-63
2022/02/25 12:48:25;;;;;;;5.60;1.77;;;;;;;;;;5059331;28;20040;-67
2022/02/25 12:51:10;;;;;;;7.05;2.33;;;;;;;;;;5055024;28;20047;-63
2022/02/25 12:53:57;;;;;;;9.70;2.40;;;;;;;;;;5043564;28;20032;-67
2022/02/25 12:56:45;;;;;;;9.02;2.35;;;;;;;;;;5037736;28;20027;-67
2022/02/25 12:59:33;;;;;;;10.75;2.53;;;;;;;;;;5065232;28;20070;-68
2022/02/25 13:02:20;;;;;;;6.18;1.70;;;;;;;;;;5050066;28;20021;-66
2022/02/25 13:05:06;;;;;;;6.40;1.85;;;;;;;;;;5058955;28;20028;-69
2022/02/25 13:07:55;;;;;;;6.88;2.05;;;;;;;;;;5051602;28;20056;-72
2022/02/25 13:10:40;;;;;;;8.13;2.20;;;;;;;;;;5051877;28;20056;-61
2022/02/25 13:13:25;;;;;;;9.27;2.10;;;;;;;;;;5056098;28;20387;-63
2022/02/25 13:16:11;;;;;;;8.23;2.17;;;;;;;;;;5051153;28;20036;-64
2022/02/25 13:18:56;;;;;;;6.88;2.05;;;;;;;;;;5056334;28;20325;-63
2022/02/25 13:21:41;;;;;;;4.05;1.83;;;;;;;;;;5051274;28;20063;-64
2022/02/25 13:24:27;;;;;;;6.60;1.65;;;;;;;;;;5054568;28;20399;-64
2022/02/25 13:27:12;;;;;;;5.95;2.05;;;;;;;;;;5056206;28;20045;-62
2022/02/25 13:29:57;;;;;;;16.08;2.40;;;;;;;;;;5063603;28;20047;-71
2022/02/25 13:32:47;;;;;;;8.55;2.33;;;;;;;;;;5056076;28;20043;-71
2022/02/25 13:35:32;;;;;;;;;;;;;;;;;;5066649;28;20032;-72
2022/02/25 13:38:31;;;;;;;8.45;1.98;;;;;;;;;;5070769;28;20381;-72
2022/02/25 13:41:16;;;;;;;8.50;1.80;;;;;;;;;;5041279;28;20028;-71
2022/02/25 13:44:10;;;;;;;7.57;2.30;;;;;;;;;;5043376;28;20055;-61
2022/02/25 13:46:56;;;;;;;5.88;1.73;;;;;;;;;;5061909;28;20102;-62
2022/02/25 13:52:45;;;;;;;10.68;1.80;;;;;;;;;;5056456;28;20029;-66
2022/02/25 13:55:30;;;;;;;8.40;1.88;;;;;;;;;;5060498;28;20040;-65
2022/02/25 13:58:16;;;;;;;5.18;1.70;;;;;;;;;;5057003;28;20040;-68
2022/02/25 14:01:01;;;;;;;9.23;2.00;;;;;;;;;;5063677;28;20068;-63
2022/02/25 14:03:46;;;;;;;9.77;1.83;;;;;;;;;;5056687;28;20413;-67
2022/02/25 14:06:33;;;;;;;10.32;2.78;;;;;;;;;;5053886;28;20032;-60
2022/02/25 14:09:22;;;;;;;6.75;1.67;;;;;;;;;;5056094;28;20103;-60
2022/02/25 14:12:09;;;;;;;11.20;1.83;;;;;;;;;;5055815;28;20028;-60
2022/02/25 14:14:54;;;;;;;8.13;1.70;;;;;;;;;;5054474;28;20020;-59
2022/02/25 14:17:40;;;;;;;8.88;2.67;;;;;;;;;;5061141;28;20130;-60
2022/02/25 14:20:26;;;;;;;7.78;1.90;;;;;;;;;;5060399;28;20025;-64
2022/02/25 14:23:12;;;;;;;10.10;2.10;;;;;;;;;;5064179;28;20111;-63
2022/02/25 14:25:58;;;;;;;12.45;2.40;;;;;;;;;;5065201;28;20040;-65
2022/02/25 14:28:43;;;;;;;11.60;3.45;;;;;;;;;;5059903;28;20372;-67
2022/02/25 14:31:28;;;;;;;10.35;1.85;;;;;;;;;;5059933;28;20043;-71
2022/02/25 14:34:15;;;;;;;10.95;2.25;;;;;;;;;;5057249;28;20390;-72
2022/02/25 14:37:00;;;;;;;9.45;2.17;;;;;;;;;;5068595;28;20462;-74
2022/02/25 14:39:45;;;;;;;7.28;2.00;;;;;;;;;;5069547;28;20060;-63
2022/02/25 14:42:31;;;;;;;12.98;2.60;;;;;;;;;;5050690;28;20375;-61
2022/02/25 14:45:17;;;;;;;5.28;1.50;;;;;;;;;;5062191;28;20028;-62
2022/02/25 14:48:02;;;;;;;7.28;1.90;;;;;;;;;;5045591;28;20043;-66
2022/02/25 14:50:48;;;;;;;9.48;2.22;;;;;;;;;;5055723;28;20024;-62
2022/02/25 14:53:34;;;;;;;11.50;2.45;;;;;;;;;;5041001;28;20028;-63
2022/02/25 14:56:19;;;;;;;7.78;2.03;;;;;;;;;;5034568;28;20118;-62
2022/02/25 14:59:04;;;;;;;7.55;2.03;;;;;;;;;;5044422;28;20492;-66
2022/02/25 15:01:50;;;;;;;8.27;3.10;;;;;;;;;;5047425;28;20413;-63
2022/02/25 15:04:35;;;;;;;8.15;2.08;;;;;;;;;;5046667;28;20036;-60
2022/02/25 15:07:20;;;;;;;8.25;2.47;;;;;;;;;;5058122;28;20032;-62
2022/02/25 15:10:07;;;;;;;5.22;1.92;;;;;;;;;;5042188;28;20044;-62
2022/02/25 15:12:53;;;;;;;9.65;1.70;;;;;;;;;;5052746;28;20335;-61
2022/02/25 15:15:39;;;;;;;7.72;1.98;;;;;;;;;;5051095;28;20364;-66
2022/02/25 15:18:24;;;;;;;8.90;2.00;;;;;;;;;;5037572;28;20051;-64
2022/02/25 15:21:10;;;;;;;10.75;2.20;;;;;;;;;;5045619;28;20024;-64
2022/02/25 15:23:55;;;;;;;9.20;2.45;;;;;;;;;;5054696;28;20032;-63
2022/02/25 15:26:40;;;;;;;5.05;1.67;;;;;;;;;;5048207;28;20028;-64
2022/02/25 15:29:25;;;;;;;10.73;2.17;;;;;;;;;;5052569;28;20107;-62
2022/02/25 15:32:11;;;;;;;7.97;2.00;;;;;;;;;;5103203;28;20032;-69
2022/02/25 15:34:56;;;;;;;7.47;1.73;;;;;;;;;;5100628;28;20032;-70
2022/02/25 15:37:41;;;;;;;9.85;2.28;;;;;;;;;;5075447;28;20059;-73
2022/02/25 15:40:27;;;;;;;9.88;2.28;;;;;;;;;;5087598;28;20339;-72
2022/02/25 15:43:12;;;;;;;9.23;1.70;;;;;;;;;;5085094;28;20485;-73
2022/02/25 15:45:57;;;;;;;9.52;2.40;;;;;;;;;;5084282;28;20040;-70
2022/02/25 15:48:42;;;;;;;7.55;2.33;;;;;;;;;;5086811;28;20034;-71
2022/02/25 15:51:28;;;;;;;9.48;2.30;;;;;;;;;;5096692;28;20111;-73
2022/02/25 15:54:13;;;;;;;8.25;1.95;;;;;;;;;;5088179;28;20536;-63
2022/02/25 15:56:58;;;;;;;8.85;2.55;;;;;;;;;;5100995;28;20048;-65
2022/02/25 15:59:44;;;;;;;12.05;2.28;;;;;;;;;;5101265;28;20028;-65
2022/02/25 16:02:30;;;;;;;10.07;2.60;;;;;;;;;;5087968;28;20032;-65
2022/02/25 16:05:15;;;;;;;15.13;2.75;;;;;;;;;;5086892;28;20032;-65
2022/02/25 16:08:00;;;;;;;21.42;2.90;;;;;;;;;;5092162;28;20040;-65
2022/02/25 16:10:45;;;;;;;7.25;2.35;;;;;;;;;;5094236;28;20024;-69
2022/02/25 16:13:31;;;;;;;11.30;2.55;;;;;;;;;;5098098;28;20528;-61
2022/02/25 16:16:16;;;;;;;12.73;2.28;;;;;;;;;;5078682;28;20118;-65
2022/02/25 16:19:01;;;;;;;7.53;1.90;;;;;;;;;;5077939;28;20554;-66
2022/02/25 16:21:46;;;;;;;5.93;1.85;;;;;;;;;;5087137;28;20024;-68
2022/02/25 16:24:32;;;;;;;7.63;2.45;;;;;;;;;;5102460;28;20028;-66
2022/02/25 16:27:17;;;;;;;10.13;2.72;;;;;;;;;;5081304;28;20037;-66
2022/02/25 16:30:03;;;;;;;8.30;2.08;;;;;;;;;;5084797;28;20028;-71
2022/02/25 16:32:48;;;;;;;5.78;1.60;;;;;;;;;;5082479;28;20481;-67
2022/02/25 16:35:33;;;;;;;10.27;2.10;;;;;;;;;;5101412;28;20081;-70
2022/02/25 16:38:19;;;;;;;11.23;2.80;;;;;;;;;;5085084;28;20580;-68
2022/02/25 16:41:05;;;;;;;12.20;2.17;;;;;;;;;;5102049;28;20579;-69
2022/02/25 16:43:50;;;;;;;8.48;2.20;;;;;;;;;;5087407;28;20028;-69
2022/02/25 16:46:35;;;;;;;11.45;2.67;;;;;;;;;;5101018;28;20024;-71